Colne, United Kingdom
Current Conditions -  °F | °C
As of 4:20 AM on Friday 21 Nov 2014 (Local Time) from EGNM Reporting Station
Moderate Fog Moderate Fog  
Wind Chill: 42°   Ceiling: Unl
Heat Index: 45°   Visibility: 0.12mi
Dew Point: 45°   Wind: 5mph
Humidity: 100%   Direction: 110°ESE
Pressure: 30.15"   Gusts: NA
Location:  53.86°N, 2.17°W
Report Text: EGNM 210420Z 11004KT 090V150 0200 R32/0325 FG VV/// 07/07 Q1021
Loading
Personal Weather Stations






























Interactive Weather Map New forecast layout! Learn more

10-Day Weather Forecast

Advertisements
Track Severe Weather on mobile